sensor_id;sensor_type;location;lat;lon;timestamp;temperature;humidity
11540;DHT22;5826;54.756;9.192;2023-07-16T00:02:12;19.40;99.90
11540;DHT22;5826;54.756;9.192;2023-07-16T00:04:37;19.30;99.90
11540;DHT22;5826;54.756;9.192;2023-07-16T00:07:03;20.00;99.90
11540;DHT22;5826;54.756;9.192;2023-07-16T00:09:29;19.30;99.90
11540;DHT22;5826;54.756;9.192;2023-07-16T00:11:56;19.30;99.90
11540;DHT22;5826;54.756;9.192;2023-07-16T00:14:21;19.30;99.90
11540;DHT22;5826;54.756;9.192;2023-07-16T00:16:47;19.30;99.90
11540;DHT22;5826;54.756;9.192;2023-07-16T00:19:14;19.20;99.90
11540;DHT22;5826;54.756;9.192;2023-07-16T00:21:40;19.20;99.90
11540;DHT22;5826;54.756;9.192;2023-07-16T00:24:05;19.20;99.90
11540;DHT22;5826;54.756;9.192;2023-07-16T00:26:31;19.20;99.90
11540;DHT22;5826;54.756;9.192;2023-07-16T00:28:57;19.20;99.90
11540;DHT22;5826;54.756;9.192;2023-07-16T00:31:22;19.10;99.90
11540;DHT22;5826;54.756;9.192;2023-07-16T00:33:48;19.10;99.90
11540;DHT22;5826;54.756;9.192;2023-07-16T00:36:13;19.10;99.90
11540;DHT22;5826;54.756;9.192;2023-07-16T00:38:39;19.10;99.90
11540;DHT22;5826;54.756;9.192;2023-07-16T00:41:08;19.10;99.90
11540;DHT22;5826;54.756;9.192;2023-07-16T00:43:33;19.10;99.90
11540;DHT22;5826;54.756;9.192;2023-07-16T00:45:59;19.10;99.90
11540;DHT22;5826;54.756;9.192;2023-07-16T00:48:25;19.10;99.90
11540;DHT22;5826;54.756;9.192;2023-07-16T00:50:52;19.00;99.90
11540;DHT22;5826;54.756;9.192;2023-07-16T00:53:20;19.00;99.90
11540;DHT22;5826;54.756;9.192;2023-07-16T00:55:45;19.00;99.90
11540;DHT22;5826;54.756;9.192;2023-07-16T00:58:11;19.00;99.90
11540;DHT22;5826;54.756;9.192;2023-07-16T01:00:38;19.00;99.90
11540;DHT22;5826;54.756;9.192;2023-07-16T01:03:06;19.20;99.90
11540;DHT22;5826;54.756;9.192;2023-07-16T01:08:04;19.50;99.90
11540;DHT22;5826;54.756;9.192;2023-07-16T01:10:33;18.90;99.90
11540;DHT22;5826;54.756;9.192;2023-07-16T01:12:59;18.90;99.90
11540;DHT22;5826;54.756;9.192;2023-07-16T01:15:25;18.90;99.90
11540;DHT22;5826;54.756;9.192;2023-07-16T01:17:50;18.80;99.90
11540;DHT22;5826;54.756;9.192;2023-07-16T01:20:16;18.90;99.90
11540;DHT22;5826;54.756;9.192;2023-07-16T01:25:24;18.80;99.90
11540;DHT22;5826;54.756;9.192;2023-07-16T01:28:09;18.80;99.90
11540;DHT22;5826;54.756;9.192;2023-07-16T01:30:39;18.80;99.90
11540;DHT22;5826;54.756;9.192;2023-07-16T01:33:07;18.80;99.90
11540;DHT22;5826;54.756;9.192;2023-07-16T01:35:35;18.80;99.90
11540;DHT22;5826;54.756;9.192;2023-07-16T01:38:01;18.80;99.90
11540;DHT22;5826;54.756;9.192;2023-07-16T01:40:27;18.70;99.90
11540;DHT22;5826;54.756;9.192;2023-07-16T01:42:52;18.70;99.90
11540;DHT22;5826;54.756;9.192;2023-07-16T01:45:18;18.70;99.90
11540;DHT22;5826;54.756;9.192;2023-07-16T01:50:21;18.60;99.90
11540;DHT22;5826;54.756;9.192;2023-07-16T01:52:46;18.60;99.90
11540;DHT22;5826;54.756;9.192;2023-07-16T01:55:11;18.60;99.90
11540;DHT22;5826;54.756;9.192;2023-07-16T01:57:37;18.50;99.90
11540;DHT22;5826;54.756;9.192;2023-07-16T02:00:03;18.50;99.90
11540;DHT22;5826;54.756;9.192;2023-07-16T02:02:29;18.60;99.90
11540;DHT22;5826;54.756;9.192;2023-07-16T02:04:55;18.50;99.90
11540;DHT22;5826;54.756;9.192;2023-07-16T02:07:20;18.70;99.90
11540;DHT22;5826;54.756;9.192;2023-07-16T02:09:46;18.40;99.90
11540;DHT22;5826;54.756;9.192;2023-07-16T02:12:11;18.40;99.90
11540;DHT22;5826;54.756;9.192;2023-07-16T02:14:37;18.40;99.90
11540;DHT22;5826;54.756;9.192;2023-07-16T02:17:02;18.30;99.90
11540;DHT22;5826;54.756;9.192;2023-07-16T02:19:28;18.30;99.90
11540;DHT22;5826;54.756;9.192;2023-07-16T02:21:54;18.30;99.90
11540;DHT22;5826;54.756;9.192;2023-07-16T02:24:20;18.30;99.90
11540;DHT22;5826;54.756;9.192;2023-07-16T02:26:45;18.30;99.90
11540;DHT22;5826;54.756;9.192;2023-07-16T02:29:11;18.30;99.90
11540;DHT22;5826;54.756;9.192;2023-07-16T02:31:36;18.30;99.90
11540;DHT22;5826;54.756;9.192;2023-07-16T02:34:02;18.20;99.90
11540;DHT22;5826;54.756;9.192;2023-07-16T02:36:27;18.20;99.90
11540;DHT22;5826;54.756;9.192;2023-07-16T02:38:53;18.20;99.90
11540;DHT22;5826;54.756;9.192;2023-07-16T02:41:18;18.20;99.90
11540;DHT22;5826;54.756;9.192;2023-07-16T02:43:45;18.10;99.90
11540;DHT22;5826;54.756;9.192;2023-07-16T02:46:11;18.10;99.90
11540;DHT22;5826;54.756;9.192;2023-07-16T02:48:36;18.10;99.90
11540;DHT22;5826;54.756;9.192;2023-07-16T02:51:02;18.10;99.90
11540;DHT22;5826;54.756;9.192;2023-07-16T02:53:27;18.00;99.90
11540;DHT22;5826;54.756;9.192;2023-07-16T02:55:53;18.00;99.90
11540;DHT22;5826;54.756;9.192;2023-07-16T02:58:18;18.00;99.90
11540;DHT22;5826;54.756;9.192;2023-07-16T03:00:44;17.90;99.90
11540;DHT22;5826;54.756;9.192;2023-07-16T03:03:09;17.90;99.90
11540;DHT22;5826;54.756;9.192;2023-07-16T03:05:35;17.90;99.90
11540;DHT22;5826;54.756;9.192;2023-07-16T03:08:00;17.90;99.90
11540;DHT22;5826;54.756;9.192;2023-07-16T03:10:26;17.90;99.90
11540;DHT22;5826;54.756;9.192;2023-07-16T03:12:52;17.90;99.90
11540;DHT22;5826;54.756;9.192;2023-07-16T03:15:17;17.90;99.90
11540;DHT22;5826;54.756;9.192;2023-07-16T03:17:43;17.80;99.90
11540;DHT22;5826;54.756;9.192;2023-07-16T03:20:09;17.90;99.90
11540;DHT22;5826;54.756;9.192;2023-07-16T03:22:35;17.80;99.90
11540;DHT22;5826;54.756;9.192;2023-07-16T03:25:01;17.80;99.90
11540;DHT22;5826;54.756;9.192;2023-07-16T03:27:27;17.90;99.90
11540;DHT22;5826;54.756;9.192;2023-07-16T03:29:52;17.90;99.90
11540;DHT22;5826;54.756;9.192;2023-07-16T03:32:18;17.90;99.90
11540;DHT22;5826;54.756;9.192;2023-07-16T03:34:43;17.80;99.90
11540;DHT22;5826;54.756;9.192;2023-07-16T03:37:09;17.80;99.90
11540;DHT22;5826;54.756;9.192;2023-07-16T03:39:34;17.70;99.90
11540;DHT22;5826;54.756;9.192;2023-07-16T03:42:00;17.70;99.90
11540;DHT22;5826;54.756;9.192;2023-07-16T03:44:25;17.70;99.90
11540;DHT22;5826;54.756;9.192;2023-07-16T03:46:51;17.70;99.90
11540;DHT22;5826;54.756;9.192;2023-07-16T03:49:16;18.50;99.90
11540;DHT22;5826;54.756;9.192;2023-07-16T03:51:42;17.70;99.90
11540;DHT22;5826;54.756;9.192;2023-07-16T03:54:07;17.70;99.90
11540;DHT22;5826;54.756;9.192;2023-07-16T03:56:33;17.70;99.90
11540;DHT22;5826;54.756;9.192;2023-07-16T03:58:58;17.70;99.90
11540;DHT22;5826;54.756;9.192;2023-07-16T04:01:24;17.70;99.90
11540;DHT22;5826;54.756;9.192;2023-07-16T04:03:49;17.70;99.90
11540;DHT22;5826;54.756;9.192;2023-07-16T04:06:15;17.70;99.90
11540;DHT22;5826;54.756;9.192;2023-07-16T04:08:40;17.80;99.90
11540;DHT22;5826;54.756;9.192;2023-07-16T04:11:06;17.80;99.90
11540;DHT22;5826;54.756;9.192;2023-07-16T04:13:32;17.80;99.90
11540;DHT22;5826;54.756;9.192;2023-07-16T04:15:58;17.90;99.90
11540;DHT22;5826;54.756;9.192;2023-07-16T04:18:24;17.90;99.90
11540;DHT22;5826;54.756;9.192;2023-07-16T04:20:50;18.00;99.90
11540;DHT22;5826;54.756;9.192;2023-07-16T04:23:16;18.00;99.90
11540;DHT22;5826;54.756;9.192;2023-07-16T04:25:41;18.00;99.90
11540;DHT22;5826;54.756;9.192;2023-07-16T04:28:07;18.00;99.90
11540;DHT22;5826;54.756;9.192;2023-07-16T04:30:33;18.10;99.90
11540;DHT22;5826;54.756;9.192;2023-07-16T04:32:58;18.00;99.90
11540;DHT22;5826;54.756;9.192;2023-07-16T04:35:23;18.10;99.90
11540;DHT22;5826;54.756;9.192;2023-07-16T04:37:49;18.10;99.90
11540;DHT22;5826;54.756;9.192;2023-07-16T04:40:15;18.10;99.90
11540;DHT22;5826;54.756;9.192;2023-07-16T04:42:40;18.10;99.90
11540;DHT22;5826;54.756;9.192;2023-07-16T04:45:06;18.20;99.90
11540;DHT22;5826;54.756;9.192;2023-07-16T04:47:32;18.10;99.90
11540;DHT22;5826;54.756;9.192;2023-07-16T04:49:58;18.20;99.90
11540;DHT22;5826;54.756;9.192;2023-07-16T04:52:24;18.20;99.90
11540;DHT22;5826;54.756;9.192;2023-07-16T04:54:50;18.20;99.90
11540;DHT22;5826;54.756;9.192;2023-07-16T04:57:15;18.30;99.90
11540;DHT22;5826;54.756;9.192;2023-07-16T04:59:41;18.30;99.90
11540;DHT22;5826;54.756;9.192;2023-07-16T05:02:07;18.30;99.90
11540;DHT22;5826;54.756;9.192;2023-07-16T05:04:36;18.30;99.90
11540;DHT22;5826;54.756;9.192;2023-07-16T05:07:02;18.30;99.90
11540;DHT22;5826;54.756;9.192;2023-07-16T05:09:28;18.30;99.90
11540;DHT22;5826;54.756;9.192;2023-07-16T05:11:54;18.40;99.90
11540;DHT22;5826;54.756;9.192;2023-07-16T05:14:19;18.40;99.90
11540;DHT22;5826;54.756;9.192;2023-07-16T05:16:45;18.40;99.90
11540;DHT22;5826;54.756;9.192;2023-07-16T05:19:10;18.40;99.90
11540;DHT22;5826;54.756;9.192;2023-07-16T05:21:36;18.50;99.90
11540;DHT22;5826;54.756;9.192;2023-07-16T05:24:02;18.50;99.90
11540;DHT22;5826;54.756;9.192;2023-07-16T05:26:28;18.50;99.90
11540;DHT22;5826;54.756;9.192;2023-07-16T05:28:53;18.50;99.90
11540;DHT22;5826;54.756;9.192;2023-07-16T05:31:19;18.50;99.90
11540;DHT22;5826;54.756;9.192;2023-07-16T05:33:44;18.60;99.90
11540;DHT22;5826;54.756;9.192;2023-07-16T05:36:10;18.60;99.90
11540;DHT22;5826;54.756;9.192;2023-07-16T05:38:35;18.60;99.90
11540;DHT22;5826;54.756;9.192;2023-07-16T05:41:04;18.80;99.90
11540;DHT22;5826;54.756;9.192;2023-07-16T05:43:30;18.90;99.90
11540;DHT22;5826;54.756;9.192;2023-07-16T05:45:56;18.70;99.90
11540;DHT22;5826;54.756;9.192;2023-07-16T05:48:21;18.70;99.90
11540;DHT22;5826;54.756;9.192;2023-07-16T05:50:47;18.80;99.90
11540;DHT22;5826;54.756;9.192;2023-07-16T05:53:12;18.80;99.90
11540;DHT22;5826;54.756;9.192;2023-07-16T05:55:40;18.90;99.90
11540;DHT22;5826;54.756;9.192;2023-07-16T05:58:06;19.00;99.90
11540;DHT22;5826;54.756;9.192;2023-07-16T06:00:31;19.00;99.90
11540;DHT22;5826;54.756;9.192;2023-07-16T06:02:57;19.00;99.90
11540;DHT22;5826;54.756;9.192;2023-07-16T06:05:23;19.00;99.90
11540;DHT22;5826;54.756;9.192;2023-07-16T06:07:50;19.00;99.90
11540;DHT22;5826;54.756;9.192;2023-07-16T06:10:15;19.10;99.90
11540;DHT22;5826;54.756;9.192;2023-07-16T06:12:41;19.10;99.90
11540;DHT22;5826;54.756;9.192;2023-07-16T06:15:07;19.10;99.90
11540;DHT22;5826;54.756;9.192;2023-07-16T06:17:32;19.10;99.90
11540;DHT22;5826;54.756;9.192;2023-07-16T06:19:58;19.20;99.90
11540;DHT22;5826;54.756;9.192;2023-07-16T06:22:23;19.10;99.90
11540;DHT22;5826;54.756;9.192;2023-07-16T06:24:49;19.20;99.90
11540;DHT22;5826;54.756;9.192;2023-07-16T06:27:14;19.20;99.90
11540;DHT22;5826;54.756;9.192;2023-07-16T06:29:40;19.20;99.90
11540;DHT22;5826;54.756;9.192;2023-07-16T06:32:06;19.20;99.90
11540;DHT22;5826;54.756;9.192;2023-07-16T06:34:32;19.30;99.90
11540;DHT22;5826;54.756;9.192;2023-07-16T06:36:57;19.30;99.90
11540;DHT22;5826;54.756;9.192;2023-07-16T06:39:23;19.30;99.90
11540;DHT22;5826;54.756;9.192;2023-07-16T06:41:48;19.30;99.90
11540;DHT22;5826;54.756;9.192;2023-07-16T06:44:15;19.40;99.90
11540;DHT22;5826;54.756;9.192;2023-07-16T06:46:40;19.40;99.90
11540;DHT22;5826;54.756;9.192;2023-07-16T06:49:06;19.50;99.90
11540;DHT22;5826;54.756;9.192;2023-07-16T06:51:35;19.50;99.90
11540;DHT22;5826;54.756;9.192;2023-07-16T06:54:00;19.50;99.90
11540;DHT22;5826;54.756;9.192;2023-07-16T06:56:26;19.50;99.90
11540;DHT22;5826;54.756;9.192;2023-07-16T06:58:52;19.50;99.90
11540;DHT22;5826;54.756;9.192;2023-07-16T07:01:17;19.50;99.90
11540;DHT22;5826;54.756;9.192;2023-07-16T07:03:43;19.50;99.90
11540;DHT22;5826;54.756;9.192;2023-07-16T07:06:08;19.50;99.90
11540;DHT22;5826;54.756;9.192;2023-07-16T07:08:36;19.60;99.90
11540;DHT22;5826;54.756;9.192;2023-07-16T07:11:02;19.60;99.90
11540;DHT22;5826;54.756;9.192;2023-07-16T07:13:27;20.00;99.90
11540;DHT22;5826;54.756;9.192;2023-07-16T07:15:55;19.60;99.90
11540;DHT22;5826;54.756;9.192;2023-07-16T07:18:20;19.60;99.90
11540;DHT22;5826;54.756;9.192;2023-07-16T07:20:46;19.60;99.90
11540;DHT22;5826;54.756;9.192;2023-07-16T07:23:13;19.70;99.90
11540;DHT22;5826;54.756;9.192;2023-07-16T07:25:38;19.80;99.90
11540;DHT22;5826;54.756;9.192;2023-07-16T07:28:04;19.90;99.90
11540;DHT22;5826;54.756;9.192;2023-07-16T07:30:30;19.80;99.90
11540;DHT22;5826;54.756;9.192;2023-07-16T07:32:55;19.80;99.90
11540;DHT22;5826;54.756;9.192;2023-07-16T07:35:21;19.80;99.90
11540;DHT22;5826;54.756;9.192;2023-07-16T07:37:46;19.80;99.90
11540;DHT22;5826;54.756;9.192;2023-07-16T07:40:12;19.80;99.90
11540;DHT22;5826;54.756;9.192;2023-07-16T07:42:37;19.70;99.90
11540;DHT22;5826;54.756;9.192;2023-07-16T07:45:03;19.70;99.90
11540;DHT22;5826;54.756;9.192;2023-07-16T07:47:29;19.70;99.90
11540;DHT22;5826;54.756;9.192;2023-07-16T07:49:54;19.70;99.90
11540;DHT22;5826;54.756;9.192;2023-07-16T07:52:20;19.80;99.90
11540;DHT22;5826;54.756;9.192;2023-07-16T07:54:45;19.80;99.90
11540;DHT22;5826;54.756;9.192;2023-07-16T07:57:11;19.80;99.90
11540;DHT22;5826;54.756;9.192;2023-07-16T07:59:37;19.80;99.90
11540;DHT22;5826;54.756;9.192;2023-07-16T08:02:02;19.90;99.90
11540;DHT22;5826;54.756;9.192;2023-07-16T08:04:28;20.00;99.90
11540;DHT22;5826;54.756;9.192;2023-07-16T08:06:54;20.00;99.90
11540;DHT22;5826;54.756;9.192;2023-07-16T08:09:19;20.00;99.90
11540;DHT22;5826;54.756;9.192;2023-07-16T08:11:45;20.10;99.90
11540;DHT22;5826;54.756;9.192;2023-07-16T08:14:10;20.00;99.90
11540;DHT22;5826;54.756;9.192;2023-07-16T08:16:36;19.80;99.90
11540;DHT22;5826;54.756;9.192;2023-07-16T08:19:01;19.80;99.90
11540;DHT22;5826;54.756;9.192;2023-07-16T08:21:28;20.00;99.90
11540;DHT22;5826;54.756;9.192;2023-07-16T08:23:53;19.90;99.90
11540;DHT22;5826;54.756;9.192;2023-07-16T08:26:19;20.00;99.90
11540;DHT22;5826;54.756;9.192;2023-07-16T08:28:44;20.10;99.90
11540;DHT22;5826;54.756;9.192;2023-07-16T08:31:11;20.10;99.90
11540;DHT22;5826;54.756;9.192;2023-07-16T08:33:38;20.30;99.90
11540;DHT22;5826;54.756;9.192;2023-07-16T08:36:03;20.40;99.90
11540;DHT22;5826;54.756;9.192;2023-07-16T08:38:29;20.50;99.90
11540;DHT22;5826;54.756;9.192;2023-07-16T08:40:55;20.40;99.90
11540;DHT22;5826;54.756;9.192;2023-07-16T08:43:20;20.40;99.90
11540;DHT22;5826;54.756;9.192;2023-07-16T08:45:48;20.30;99.90
11540;DHT22;5826;54.756;9.192;2023-07-16T08:48:16;20.30;99.90
11540;DHT22;5826;54.756;9.192;2023-07-16T08:50:47;20.40;99.90
11540;DHT22;5826;54.756;9.192;2023-07-16T08:53:14;20.40;99.90
11540;DHT22;5826;54.756;9.192;2023-07-16T08:55:40;20.50;99.90
11540;DHT22;5826;54.756;9.192;2023-07-16T08:58:06;20.60;99.90
11540;DHT22;5826;54.756;9.192;2023-07-16T09:00:32;20.70;99.90
11540;DHT22;5826;54.756;9.192;2023-07-16T09:02:57;20.70;99.90
11540;DHT22;5826;54.756;9.192;2023-07-16T09:05:23;20.70;99.90
11540;DHT22;5826;54.756;9.192;2023-07-16T09:07:49;21.10;99.90
11540;DHT22;5826;54.756;9.192;2023-07-16T09:10:15;20.60;99.90
11540;DHT22;5826;54.756;9.192;2023-07-16T09:12:44;20.60;99.90
11540;DHT22;5826;54.756;9.192;2023-07-16T09:15:17;20.60;99.90
11540;DHT22;5826;54.756;9.192;2023-07-16T09:17:46;20.70;99.90
11540;DHT22;5826;54.756;9.192;2023-07-16T09:20:18;20.70;99.90
11540;DHT22;5826;54.756;9.192;2023-07-16T09:22:44;20.70;99.90
11540;DHT22;5826;54.756;9.192;2023-07-16T09:25:10;20.90;99.90
11540;DHT22;5826;54.756;9.192;2023-07-16T09:27:36;20.70;99.90
11540;DHT22;5826;54.756;9.192;2023-07-16T09:30:06;20.80;99.90
11540;DHT22;5826;54.756;9.192;2023-07-16T09:32:36;20.90;99.90
11540;DHT22;5826;54.756;9.192;2023-07-16T09:35:16;21.00;99.90
11540;DHT22;5826;54.756;9.192;2023-07-16T09:37:42;21.00;99.90
11540;DHT22;5826;54.756;9.192;2023-07-16T09:40:10;20.80;99.90
11540;DHT22;5826;54.756;9.192;2023-07-16T09:42:40;20.80;99.90
11540;DHT22;5826;54.756;9.192;2023-07-16T09:45:07;20.80;99.90
11540;DHT22;5826;54.756;9.192;2023-07-16T09:47:35;20.90;99.90
11540;DHT22;5826;54.756;9.192;2023-07-16T09:50:02;21.00;99.90
11540;DHT22;5826;54.756;9.192;2023-07-16T09:52:30;21.10;99.90
11540;DHT22;5826;54.756;9.192;2023-07-16T09:54:56;21.10;99.90
11540;DHT22;5826;54.756;9.192;2023-07-16T09:57:25;21.10;99.90
11540;DHT22;5826;54.756;9.192;2023-07-16T09:59:53;21.00;99.90
11540;DHT22;5826;54.756;9.192;2023-07-16T10:02:20;21.20;99.90
11540;DHT22;5826;54.756;9.192;2023-07-16T10:04:46;21.50;99.90
11540;DHT22;5826;54.756;9.192;2023-07-16T10:07:22;21.70;99.90
11540;DHT22;5826;54.756;9.192;2023-07-16T10:09:56;21.80;99.90
11540;DHT22;5826;54.756;9.192;2023-07-16T10:12:23;21.70;99.90
11540;DHT22;5826;54.756;9.192;2023-07-16T10:14:51;21.40;99.90
11540;DHT22;5826;54.756;9.192;2023-07-16T10:17:25;21.20;99.90
11540;DHT22;5826;54.756;9.192;2023-07-16T10:19:58;21.10;99.90
11540;DHT22;5826;54.756;9.192;2023-07-16T10:25:28;20.90;99.90
11540;DHT22;5826;54.756;9.192;2023-07-16T10:27:55;20.80;99.90
11540;DHT22;5826;54.756;9.192;2023-07-16T10:30:21;20.80;99.90
11540;DHT22;5826;54.756;9.192;2023-07-16T10:32:47;20.90;99.90
11540;DHT22;5826;54.756;9.192;2023-07-16T10:35:13;21.00;99.90
11540;DHT22;5826;54.756;9.192;2023-07-16T10:37:39;20.90;99.90
11540;DHT22;5826;54.756;9.192;2023-07-16T10:40:05;20.70;99.90
11540;DHT22;5826;54.756;9.192;2023-07-16T10:42:34;20.60;99.90
11540;DHT22;5826;54.756;9.192;2023-07-16T10:45:02;20.50;99.90
11540;DHT22;5826;54.756;9.192;2023-07-16T10:47:36;20.40;99.90
11540;DHT22;5826;54.756;9.192;2023-07-16T10:50:07;20.40;99.90
11540;DHT22;5826;54.756;9.192;2023-07-16T10:52:34;20.50;99.90
11540;DHT22;5826;54.756;9.192;2023-07-16T10:55:00;20.80;99.90
11540;DHT22;5826;54.756;9.192;2023-07-16T10:57:26;21.50;99.90
11540;DHT22;5826;54.756;9.192;2023-07-16T10:59:53;21.10;99.90
11540;DHT22;5826;54.756;9.192;2023-07-16T11:02:21;21.30;99.90
11540;DHT22;5826;54.756;9.192;2023-07-16T11:04:47;21.40;99.90
11540;DHT22;5826;54.756;9.192;2023-07-16T11:07:14;21.50;99.90
11540;DHT22;5826;54.756;9.192;2023-07-16T11:09:44;21.50;99.90
11540;DHT22;5826;54.756;9.192;2023-07-16T11:12:11;21.50;99.90
11540;DHT22;5826;54.756;9.192;2023-07-16T11:14:38;21.60;99.90
11540;DHT22;5826;54.756;9.192;2023-07-16T11:17:05;21.30;99.90
11540;DHT22;5826;54.756;9.192;2023-07-16T11:19:32;21.20;99.90
11540;DHT22;5826;54.756;9.192;2023-07-16T11:21:59;21.10;99.90
11540;DHT22;5826;54.756;9.192;2023-07-16T11:24:25;21.40;99.90
11540;DHT22;5826;54.756;9.192;2023-07-16T11:26:53;21.10;99.90
11540;DHT22;5826;54.756;9.192;2023-07-16T11:29:20;21.30;99.90
11540;DHT22;5826;54.756;9.192;2023-07-16T11:31:49;21.30;99.90
11540;DHT22;5826;54.756;9.192;2023-07-16T11:34:15;21.40;99.90
11540;DHT22;5826;54.756;9.192;2023-07-16T11:36:41;21.70;99.90
11540;DHT22;5826;54.756;9.192;2023-07-16T11:39:07;21.90;99.90
11540;DHT22;5826;54.756;9.192;2023-07-16T11:41:33;22.50;99.90
11540;DHT22;5826;54.756;9.192;2023-07-16T11:44:00;21.90;99.90
11540;DHT22;5826;54.756;9.192;2023-07-16T11:46:31;21.80;99.90
11540;DHT22;5826;54.756;9.192;2023-07-16T11:48:58;22.00;99.90
11540;DHT22;5826;54.756;9.192;2023-07-16T11:51:24;22.20;99.90
11540;DHT22;5826;54.756;9.192;2023-07-16T11:53:49;22.30;99.90
11540;DHT22;5826;54.756;9.192;2023-07-16T11:56:15;22.40;99.90
11540;DHT22;5826;54.756;9.192;2023-07-16T11:58:40;22.20;99.90
11540;DHT22;5826;54.756;9.192;2023-07-16T12:01:06;22.30;99.90
11540;DHT22;5826;54.756;9.192;2023-07-16T12:03:31;22.50;99.90
11540;DHT22;5826;54.756;9.192;2023-07-16T12:05:57;22.70;99.90
11540;DHT22;5826;54.756;9.192;2023-07-16T12:08:22;22.90;99.90
11540;DHT22;5826;54.756;9.192;2023-07-16T12:10:48;23.00;99.90
11540;DHT22;5826;54.756;9.192;2023-07-16T12:13:14;22.70;99.90
11540;DHT22;5826;54.756;9.192;2023-07-16T12:15:39;22.80;99.90
11540;DHT22;5826;54.756;9.192;2023-07-16T12:18:05;22.70;99.90
11540;DHT22;5826;54.756;9.192;2023-07-16T12:20:30;22.60;99.90
11540;DHT22;5826;54.756;9.192;2023-07-16T12:22:55;22.70;99.90
11540;DHT22;5826;54.756;9.192;2023-07-16T12:25:21;22.80;99.90
11540;DHT22;5826;54.756;9.192;2023-07-16T12:27:47;22.90;99.90
11540;DHT22;5826;54.756;9.192;2023-07-16T12:30:12;23.00;99.90
11540;DHT22;5826;54.756;9.192;2023-07-16T12:32:38;23.30;99.90
11540;DHT22;5826;54.756;9.192;2023-07-16T12:35:04;23.30;99.90
11540;DHT22;5826;54.756;9.192;2023-07-16T12:37:30;23.30;99.90
11540;DHT22;5826;54.756;9.192;2023-07-16T12:39:56;23.20;99.90
11540;DHT22;5826;54.756;9.192;2023-07-16T12:42:21;22.90;99.90
11540;DHT22;5826;54.756;9.192;2023-07-16T12:44:47;22.60;99.90
11540;DHT22;5826;54.756;9.192;2023-07-16T12:47:12;22.30;99.90
11540;DHT22;5826;54.756;9.192;2023-07-16T12:49:38;22.10;99.90
11540;DHT22;5826;54.756;9.192;2023-07-16T12:52:04;22.00;99.90
11540;DHT22;5826;54.756;9.192;2023-07-16T12:54:29;21.90;99.90
11540;DHT22;5826;54.756;9.192;2023-07-16T12:56:55;21.80;99.90
11540;DHT22;5826;54.756;9.192;2023-07-16T12:59:20;21.60;99.90
11540;DHT22;5826;54.756;9.192;2023-07-16T13:01:46;21.60;99.90
11540;DHT22;5826;54.756;9.192;2023-07-16T13:04:11;21.50;99.90
11540;DHT22;5826;54.756;9.192;2023-07-16T13:06:37;21.60;99.90
11540;DHT22;5826;54.756;9.192;2023-07-16T13:09:02;21.80;99.90
11540;DHT22;5826;54.756;9.192;2023-07-16T13:11:30;22.10;99.90
11540;DHT22;5826;54.756;9.192;2023-07-16T13:13:56;22.20;99.90
11540;DHT22;5826;54.756;9.192;2023-07-16T13:16:21;22.40;99.90
11540;DHT22;5826;54.756;9.192;2023-07-16T13:18:47;22.60;99.90
11540;DHT22;5826;54.756;9.192;2023-07-16T13:21:12;22.60;99.90
11540;DHT22;5826;54.756;9.192;2023-07-16T13:23:38;22.50;99.90
11540;DHT22;5826;54.756;9.192;2023-07-16T13:26:03;22.60;99.90
11540;DHT22;5826;54.756;9.192;2023-07-16T13:28:29;23.00;99.90
11540;DHT22;5826;54.756;9.192;2023-07-16T13:30:54;23.30;99.90
11540;DHT22;5826;54.756;9.192;2023-07-16T13:33:20;23.40;99.90
11540;DHT22;5826;54.756;9.192;2023-07-16T13:35:45;23.20;99.90
11540;DHT22;5826;54.756;9.192;2023-07-16T13:38:11;22.70;99.90
11540;DHT22;5826;54.756;9.192;2023-07-16T13:40:36;22.20;99.90
11540;DHT22;5826;54.756;9.192;2023-07-16T13:43:02;21.90;99.90
11540;DHT22;5826;54.756;9.192;2023-07-16T13:45:28;21.40;99.90
11540;DHT22;5826;54.756;9.192;2023-07-16T13:47:53;21.00;99.90
11540;DHT22;5826;54.756;9.192;2023-07-16T13:50:20;20.60;99.90
11540;DHT22;5826;54.756;9.192;2023-07-16T13:52:46;20.30;99.90
11540;DHT22;5826;54.756;9.192;2023-07-16T13:55:11;20.10;99.90
11540;DHT22;5826;54.756;9.192;2023-07-16T13:57:37;20.00;99.90
11540;DHT22;5826;54.756;9.192;2023-07-16T14:00:03;19.90;99.90
11540;DHT22;5826;54.756;9.192;2023-07-16T14:02:30;19.90;99.90
11540;DHT22;5826;54.756;9.192;2023-07-16T14:04:55;19.80;99.90
11540;DHT22;5826;54.756;9.192;2023-07-16T14:07:21;19.80;99.90
11540;DHT22;5826;54.756;9.192;2023-07-16T14:09:46;20.20;99.90
11540;DHT22;5826;54.756;9.192;2023-07-16T14:12:12;20.80;99.90
11540;DHT22;5826;54.756;9.192;2023-07-16T14:14:37;21.90;99.90
11540;DHT22;5826;54.756;9.192;2023-07-16T14:17:03;22.20;99.90
11540;DHT22;5826;54.756;9.192;2023-07-16T14:19:29;22.50;99.90
11540;DHT22;5826;54.756;9.192;2023-07-16T14:21:55;22.80;99.90
11540;DHT22;5826;54.756;9.192;2023-07-16T14:24:21;23.00;99.90
11540;DHT22;5826;54.756;9.192;2023-07-16T14:26:46;23.20;99.90
11540;DHT22;5826;54.756;9.192;2023-07-16T14:29:12;23.10;99.90
11540;DHT22;5826;54.756;9.192;2023-07-16T14:31:37;22.90;99.90
11540;DHT22;5826;54.756;9.192;2023-07-16T14:34:03;22.40;99.90
11540;DHT22;5826;54.756;9.192;2023-07-16T14:36:29;21.90;99.90
11540;DHT22;5826;54.756;9.192;2023-07-16T14:38:54;21.50;99.90
11540;DHT22;5826;54.756;9.192;2023-07-16T14:41:20;21.40;99.90
11540;DHT22;5826;54.756;9.192;2023-07-16T14:43:46;21.30;99.90
11540;DHT22;5826;54.756;9.192;2023-07-16T14:46:13;21.20;99.90
11540;DHT22;5826;54.756;9.192;2023-07-16T14:48:42;21.20;99.90
11540;DHT22;5826;54.756;9.192;2023-07-16T14:51:07;21.10;99.90
11540;DHT22;5826;54.756;9.192;2023-07-16T14:53:33;21.10;99.90
11540;DHT22;5826;54.756;9.192;2023-07-16T14:55:58;21.10;99.90
11540;DHT22;5826;54.756;9.192;2023-07-16T14:58:24;21.20;99.90
11540;DHT22;5826;54.756;9.192;2023-07-16T15:00:50;21.10;99.90
11540;DHT22;5826;54.756;9.192;2023-07-16T15:03:16;21.20;99.90
11540;DHT22;5826;54.756;9.192;2023-07-16T15:05:41;21.70;99.90
11540;DHT22;5826;54.756;9.192;2023-07-16T15:08:07;22.10;99.90
11540;DHT22;5826;54.756;9.192;2023-07-16T15:10:33;22.50;99.90
11540;DHT22;5826;54.756;9.192;2023-07-16T15:12:58;22.70;99.90
11540;DHT22;5826;54.756;9.192;2023-07-16T15:15:24;23.00;99.90
11540;DHT22;5826;54.756;9.192;2023-07-16T15:17:50;23.30;99.90
11540;DHT22;5826;54.756;9.192;2023-07-16T15:20:15;23.60;99.90
11540;DHT22;5826;54.756;9.192;2023-07-16T15:22:41;23.80;99.90
11540;DHT22;5826;54.756;9.192;2023-07-16T15:25:07;24.00;99.90
11540;DHT22;5826;54.756;9.192;2023-07-16T15:27:32;24.00;99.90
11540;DHT22;5826;54.756;9.192;2023-07-16T15:29:58;24.00;99.90
11540;DHT22;5826;54.756;9.192;2023-07-16T15:32:23;23.90;99.90
11540;DHT22;5826;54.756;9.192;2023-07-16T15:34:49;23.60;99.90
11540;DHT22;5826;54.756;9.192;2023-07-16T15:37:14;23.40;99.90
11540;DHT22;5826;54.756;9.192;2023-07-16T15:39:40;23.30;99.90
11540;DHT22;5826;54.756;9.192;2023-07-16T15:42:06;22.70;99.90
11540;DHT22;5826;54.756;9.192;2023-07-16T15:44:31;22.40;99.90
11540;DHT22;5826;54.756;9.192;2023-07-16T15:46:57;22.00;99.90
11540;DHT22;5826;54.756;9.192;2023-07-16T15:49:23;21.80;99.90